Aviation Digital Data Service (ADDS)

Output produced by TAFs form (1518 UTC 23 October 2017)
found at http://www.aviationweather.gov/adds/tafs/
 
KJAX 231456Z 17010KT 7SM -RA SCT021 BKN033 OVC200 27/23 A3002 RMK AO2 RAB51 SLP165 P0000 60000 T02720233 58004
KJAX 231120Z 2312/2412 15008KT P6SM FEW015 BKN040 OVC200 
     TEMPO 2312/2314 SCT015 BKN025 BKN040 
     FM231400 15010KT P6SM VCSH SCT020 BKN040 OVC100 
     FM231700 18010G18KT 6SM -SHRA VCTS BKN030CB OVC050 
     FM240300 36008KT P6SM VCSH OVC020